Terminal Aerodrome Forecast
Issued by NWS

Home | Current Version | Previous Version | Text Only | Print | Product List | Glossary Off
Versions: 1 2 3 4 5 6 7 8 9 10 11 12 13 14 15 16 17 18 19 20 21 22 23 24 25 26 27

410
FTUS43 KLOT 281123
TAFDPA
TAF
KDPA 281123Z 2812/2912 VRB03KT P6SM FEW060 BKN250
      TEMPO 2812/2813 4SM BR
     FM281300 03004KT P6SM SCT060
     FM281600 05007KT P6SM VCSH SCT030 BKN080
      TEMPO 2820/2824 2SM -TSRA BKN040CB
     FM290100 04008KT P6SM SCT030 BKN050=

USA.gov is the U.S. government's official web portal to all federal, state and local government web resources and services.